createdAt,value
2023-02-13T00:00:38.918Z,67647.00
2023-02-13T00:03:06.286Z,67648.47
2023-02-13T00:05:33.489Z,67645.31
2023-02-13T00:08:00.649Z,67648.47
2023-02-13T00:10:27.790Z,67643.25
2023-02-13T00:12:54.962Z,67642.09
2023-02-13T00:15:22.208Z,67647.00
2023-02-13T00:17:49.302Z,67647.91
2023-02-13T00:20:16.517Z,67640.44
2023-02-13T00:22:43.586Z,67642.47
2023-02-13T00:25:11.301Z,67639.66
2023-02-13T00:27:38.412Z,67637.97
2023-02-13T00:30:06.214Z,67646.41
2023-02-13T00:32:33.223Z,67656.94
2023-02-13T00:35:00.302Z,67652.81
2023-02-13T00:37:27.587Z,67666.50
2023-02-13T00:39:54.730Z,67666.16
2023-02-13T00:42:26.404Z,67666.72
2023-02-13T00:44:54.267Z,67658.47
2023-02-13T00:47:21.698Z,67663.91
2023-02-13T00:49:48.790Z,67666.16
2023-02-13T00:52:15.833Z,67673.47
2023-02-13T00:54:44.317Z,67672.56
2023-02-13T00:57:13.018Z,67676.31
2023-02-13T00:59:42.888Z,67671.81
2023-02-13T01:02:10.040Z,67672.94
2023-02-13T01:04:37.288Z,67663.19
2023-02-13T01:07:04.547Z,67669.53
2023-02-13T01:09:31.700Z,67666.34
2023-02-13T01:11:58.842Z,67663.56
2023-02-13T01:14:26.281Z,67665.59
2023-02-13T01:16:53.348Z,67665.03
2023-02-13T01:19:20.495Z,67660.94
2023-02-13T01:21:47.601Z,67659.59
2023-02-13T01:24:14.742Z,67664.47
2023-02-13T01:26:41.831Z,67653.59
2023-02-13T01:29:12.171Z,67660.53
2023-02-13T01:31:40.251Z,67639.22
2023-02-13T01:34:07.420Z,67663.16
2023-02-13T01:36:34.744Z,67657.69
2023-02-13T01:39:01.857Z,67655.06
2023-02-13T01:41:29.243Z,67658.84
2023-02-13T01:43:59.692Z,67658.25
2023-02-13T01:46:40.521Z,67658.63
2023-02-13T01:49:18.688Z,67655.06
2023-02-13T01:51:49.514Z,67652.81
2023-02-13T01:54:31.453Z,67663.50
2023-02-13T01:57:07.959Z,67656.00
2023-02-13T01:59:43.010Z,67661.66
2023-02-13T02:02:10.635Z,67652.81
2023-02-13T02:04:41.749Z,67657.50
2023-02-13T02:07:20.201Z,67653.75
2023-02-13T02:09:51.486Z,67655.81
2023-02-13T02:12:25.031Z,67656.38
2023-02-13T02:14:54.401Z,67647.19
2023-02-13T02:17:24.940Z,67651.50
2023-02-13T02:20:10.645Z,67654.66
2023-02-13T02:22:52.924Z,67650.34
2023-02-13T02:25:41.691Z,67651.88
2023-02-13T02:28:16.184Z,67655.59
2023-02-13T02:30:58.991Z,67650.72
2023-02-13T02:33:37.951Z,67645.50
2023-02-13T02:36:23.955Z,67640.97
2023-02-13T02:39:27.584Z,67642.31
2023-02-13T02:42:11.496Z,67649.03
2023-02-13T02:44:46.859Z,67643.59
2023-02-13T02:47:52.941Z,67639.66
2023-02-13T02:50:27.531Z,67639.09
2023-02-13T02:53:26.763Z,67643.97
2023-02-13T02:55:58.593Z,67641.34
2023-02-13T02:58:54.812Z,67642.47
2023-02-13T03:01:46.985Z,67640.22
2023-02-13T03:05:07.157Z,67633.66
2023-02-13T03:07:34.264Z,67635.72
2023-02-13T03:10:28.836Z,67634.94
2023-02-13T03:13:21.716Z,67634.56
2023-02-13T03:16:13.503Z,67628.78
2023-02-13T03:19:03.412Z,67635.50
2023-02-13T03:22:06.760Z,67634.00
2023-02-13T03:25:02.460Z,67623.13
2023-02-13T03:28:08.001Z,67625.19
2023-02-13T03:30:49.781Z,67630.44
2023-02-13T03:33:43.057Z,67626.69
2023-02-13T03:36:55.161Z,67623.13
2023-02-13T03:39:29.610Z,67627.09
2023-02-13T03:42:35.673Z,67625.75
2023-02-13T03:45:31.697Z,67626.13
2023-02-13T03:48:09.781Z,67622.19
2023-02-13T03:50:41.571Z,67622.75
2023-02-13T03:53:14.014Z,67620.69
2023-02-13T03:56:03.738Z,67617.31
2023-02-13T03:58:58.578Z,67622.94
2023-02-13T04:01:28.781Z,67625.72
2023-02-13T04:04:15.534Z,67617.31
2023-02-13T04:07:29.397Z,67619.34
2023-02-13T04:09:59.396Z,67611.31
2023-02-13T04:12:46.347Z,67617.09
2023-02-13T04:15:22.152Z,67618.78
2023-02-13T04:17:55.340Z,67616.53
2023-02-13T04:20:22.528Z,67612.00
2023-02-13T04:22:49.670Z,67611.66
2023-02-13T04:25:17.688Z,67612.78
2023-02-13T04:27:44.835Z,67610.53
2023-02-13T04:30:12.661Z,67591.84
2023-02-13T04:32:39.777Z,67610.91
2023-02-13T04:35:06.890Z,67610.91
2023-02-13T04:37:33.974Z,67607.72
2023-02-13T04:40:01.037Z,67608.06
2023-02-13T04:42:28.116Z,67602.09
2023-02-13T04:44:55.194Z,67605.81
2023-02-13T04:47:22.268Z,67606.41
2023-02-13T04:49:49.345Z,67601.50
2023-02-13T04:52:16.427Z,67602.44
2023-02-13T04:54:43.618Z,67601.88
2023-02-13T04:57:10.713Z,67601.88
2023-02-13T04:59:37.869Z,67604.50
2023-02-13T05:02:05.111Z,67607.31
2023-02-13T05:04:32.347Z,67602.44
2023-02-13T05:06:59.529Z,67598.69
2023-02-13T05:09:26.753Z,67601.09
2023-02-13T05:11:54.290Z,67601.47
2023-02-13T05:14:21.823Z,67595.69
2023-02-13T05:16:49.845Z,67598.47
2023-02-13T05:19:17.097Z,67599.06
2023-02-13T05:22:02.583Z,67599.06
2023-02-13T05:24:29.679Z,67599.63
2023-02-13T05:26:56.785Z,67599.97
2023-02-13T05:29:23.963Z,67596.59
2023-02-13T05:31:53.705Z,67594.53
2023-02-13T05:34:22.375Z,67592.88
2023-02-13T05:36:50.159Z,67590.81
2023-02-13T05:39:17.294Z,67593.97
2023-02-13T05:41:45.775Z,67587.97
2023-02-13T05:44:13.905Z,67593.78
2023-02-13T05:46:42.360Z,67586.50
2023-02-13T05:49:11.157Z,67590.03
2023-02-13T05:51:38.298Z,67590.03
2023-02-13T05:54:05.453Z,67588.72
2023-02-13T05:56:32.503Z,67590.97
2023-02-13T05:58:59.649Z,67587.78
2023-02-13T06:01:26.800Z,67590.19
2023-02-13T06:03:54.052Z,67582.91
2023-02-13T06:06:22.794Z,67587.56
2023-02-13T06:08:49.921Z,67584.41
2023-02-13T06:11:17.057Z,67584.41
2023-02-13T06:13:44.681Z,67581.78
2023-02-13T06:16:12.866Z,67587.38
2023-02-13T06:18:40.505Z,67575.78
2023-02-13T06:21:08.291Z,67579.91
2023-02-13T06:23:35.390Z,67581.59
2023-02-13T06:26:05.000Z,67585.91
2023-02-13T06:28:32.742Z,67581.94
2023-02-13T06:31:00.246Z,67579.31
2023-02-13T06:33:27.518Z,67579.91
2023-02-13T06:35:54.667Z,67581.94
2023-02-13T06:38:21.865Z,67578.41
2023-02-13T06:40:49.849Z,67583.06
2023-02-13T06:43:18.034Z,67585.13
2023-02-13T06:45:47.072Z,67581.59
2023-02-13T06:48:14.657Z,67577.28
2023-02-13T06:50:41.803Z,67581.00
2023-02-13T06:53:08.973Z,67587.38
2023-02-13T06:55:36.975Z,67579.91
2023-02-13T06:58:04.328Z,67580.09
2023-02-13T07:00:31.913Z,67582.16
2023-02-13T07:03:05.364Z,67582.72
2023-02-13T07:05:33.247Z,67583.63
2023-02-13T07:08:00.314Z,67580.47
2023-02-13T07:10:27.966Z,67581.94
2023-02-13T07:13:05.222Z,67578.97
2023-02-13T07:15:34.104Z,67586.25
2023-02-13T07:18:01.519Z,67578.19
2023-02-13T07:20:28.999Z,67576.50
2023-02-13T07:23:04.612Z,67575.03
2023-02-13T07:25:32.255Z,67575.38
2023-02-13T07:28:04.520Z,67580.03
2023-02-13T07:30:36.010Z,67579.91
2023-02-13T07:33:04.489Z,67570.16
2023-02-13T07:35:32.410Z,67575.94
2023-02-13T07:38:03.286Z,67571.66
2023-02-13T07:40:30.771Z,67573.69
2023-02-13T07:43:01.030Z,67572.75
2023-02-13T07:45:28.169Z,67572.00
2023-02-13T07:48:00.010Z,67572.56
2023-02-13T07:50:30.229Z,67570.88
2023-02-13T07:52:59.505Z,67569.41
2023-02-13T07:55:29.837Z,67576.31
2023-02-13T07:57:57.161Z,67571.66
2023-02-13T08:00:25.470Z,67572.56
2023-02-13T08:02:52.611Z,67568.81
2023-02-13T08:05:22.923Z,67578.34
2023-02-13T08:07:50.111Z,67572.19
2023-02-13T08:10:35.855Z,67574.25
2023-02-13T08:13:03.271Z,67577.06
2023-02-13T08:15:30.673Z,67579.69
2023-02-13T08:17:57.994Z,67583.06
2023-02-13T08:20:25.235Z,67582.16
2023-02-13T08:22:52.513Z,67585.53
2023-02-13T08:25:19.898Z,67585.16
2023-02-13T08:27:47.284Z,67584.97
2023-02-13T08:30:15.456Z,67587.56
2023-02-13T08:32:54.009Z,67588.16
2023-02-13T08:35:22.980Z,67586.09
2023-02-13T08:37:50.186Z,67592.66
2023-02-13T08:40:17.614Z,67590.03
2023-02-13T08:42:44.732Z,67591.72
2023-02-13T08:45:12.078Z,67600.53
2023-02-13T08:47:40.022Z,67600.34
2023-02-13T08:50:08.050Z,67593.63
2023-02-13T08:52:35.501Z,67592.50
2023-02-13T08:55:03.679Z,67604.28
2023-02-13T08:57:31.534Z,67601.88
2023-02-13T08:59:58.848Z,67604.91
2023-02-13T09:02:25.987Z,67610.34
2023-02-13T09:04:53.210Z,67606.22
2023-02-13T09:07:20.461Z,67622.19
2023-02-13T09:09:47.716Z,67625.00
2023-02-13T09:12:14.828Z,67617.31
2023-02-13T09:14:41.997Z,67618.44
2023-02-13T09:17:09.115Z,67622.19
2023-02-13T09:19:36.257Z,67627.81
2023-02-13T09:22:03.500Z,67637.41
2023-02-13T09:24:30.643Z,67646.78
2023-02-13T09:26:57.789Z,67644.94
2023-02-13T09:29:25.040Z,67657.91
2023-02-13T09:31:52.949Z,67661.66
2023-02-13T09:34:20.406Z,67672.16
2023-02-13T09:36:52.177Z,67678.19
2023-02-13T09:39:19.675Z,67691.56
2023-02-13T09:41:51.351Z,67687.03
2023-02-13T09:44:34.249Z,67691.56
2023-02-13T09:47:28.421Z,67696.06
2023-02-13T09:50:12.303Z,67710.16
2023-02-13T09:52:41.244Z,67702.66
2023-02-13T09:55:37.326Z,67696.47
2023-02-13T09:58:20.721Z,67722.97
2023-02-13T10:00:53.824Z,67733.50
2023-02-13T10:03:30.180Z,67740.84
2023-02-13T10:06:00.703Z,67732.72
2023-02-13T10:08:49.142Z,67733.88
2023-02-13T10:11:37.127Z,67728.78
2023-02-13T10:14:16.710Z,67734.63
2023-02-13T10:16:52.502Z,67713.00
2023-02-13T10:19:40.871Z,67732.53
2023-02-13T10:22:17.735Z,67723.34
2023-02-13T10:24:54.488Z,67704.63
2023-02-13T10:27:28.305Z,67748.38
2023-02-13T10:30:09.242Z,67781.25
2023-02-13T10:33:16.310Z,67776.38
2023-02-13T10:35:50.294Z,67771.47
2023-02-13T10:38:20.460Z,67771.31
2023-02-13T10:41:12.575Z,67772.81
2023-02-13T10:44:15.229Z,67770.56
2023-02-13T10:47:00.522Z,67789.38
2023-02-13T10:49:47.046Z,67809.50
2023-02-13T10:52:35.705Z,67817.56
2023-02-13T10:55:20.626Z,67805.00
2023-02-13T10:58:06.333Z,67767.84
2023-02-13T11:00:50.904Z,67781.25
2023-02-13T11:03:26.617Z,67787.13
2023-02-13T11:05:55.292Z,67772.44
2023-02-13T11:08:25.552Z,67768.28
2023-02-13T11:10:53.273Z,67770.34
2023-02-13T11:13:27.782Z,67768.50
2023-02-13T11:16:27.489Z,67763.03
2023-02-13T11:18:54.643Z,67767.53
2023-02-13T11:21:39.204Z,67763.22
2023-02-13T11:24:21.507Z,67769.41
2023-02-13T11:26:57.655Z,67771.09
2023-02-13T11:29:33.297Z,67765.09
2023-02-13T11:32:22.343Z,67761.72
2023-02-13T11:34:54.773Z,67752.88
2023-02-13T11:37:29.115Z,67760.78
2023-02-13T11:39:58.598Z,67767.56
2023-02-13T11:42:50.576Z,67785.03
2023-02-13T11:45:25.620Z,67779.97
2023-02-13T11:47:56.107Z,67795.94
2023-02-13T11:50:35.436Z,67790.88
2023-02-13T11:53:07.841Z,67770.19
2023-02-13T11:55:43.087Z,67766.41
2023-02-13T11:58:12.747Z,67763.97
2023-02-13T12:00:41.686Z,67763.41
2023-02-13T12:03:25.710Z,67762.06
2023-02-13T12:06:12.305Z,67771.09
2023-02-13T12:08:50.096Z,67777.31
2023-02-13T12:11:28.645Z,67779.22
2023-02-13T12:13:56.085Z,67786.16
2023-02-13T12:16:38.484Z,67776.94
2023-02-13T12:19:14.351Z,67788.59
2023-02-13T12:21:47.727Z,67783.53
2023-02-13T12:24:42.744Z,67772.81
2023-02-13T12:27:15.276Z,67771.31
2023-02-13T12:29:58.530Z,67775.63
2023-02-13T12:32:49.724Z,67785.44
2023-02-13T12:36:04.906Z,67804.22
2023-02-13T12:39:16.065Z,67815.91
2023-02-13T12:41:55.524Z,67820.44
2023-02-13T12:44:53.609Z,67806.69
2023-02-13T12:47:42.154Z,67805.56
2023-02-13T12:50:30.072Z,67801.22
2023-02-13T12:53:23.301Z,67821.00
2023-02-13T12:56:20.878Z,67831.16
2023-02-13T12:59:04.099Z,67809.34
2023-02-13T13:01:51.493Z,67827.97
2023-02-13T13:05:03.174Z,67834.53
2023-02-13T13:07:39.668Z,67810.06
2023-02-13T13:10:06.804Z,67786.19
2023-02-13T13:12:54.982Z,67792.56
2023-02-13T13:16:06.415Z,67774.59
2023-02-13T13:18:42.866Z,67789.94
2023-02-13T13:21:31.978Z,67799.13
2023-02-13T13:24:24.934Z,67791.84
2023-02-13T13:27:01.292Z,67797.09
2023-02-13T13:29:50.008Z,67797.47
2023-02-13T13:32:26.698Z,67800.31
2023-02-13T13:34:55.552Z,67804.81
2023-02-13T13:38:03.485Z,67799.34
2023-02-13T13:40:52.980Z,67786.34
2023-02-13T13:46:59.377Z,67760.97
2023-02-13T13:49:53.957Z,67769.00
2023-02-13T13:52:30.662Z,67756.25
2023-02-13T13:55:05.392Z,67760.97
2023-02-13T13:57:34.158Z,67758.69
2023-02-13T14:00:14.152Z,67751.53
2023-02-13T14:03:22.436Z,67742.31
2023-02-13T14:06:11.076Z,67734.06
2023-02-13T14:08:41.178Z,67733.09
2023-02-13T14:11:31.365Z,67722.56
2023-02-13T14:14:02.602Z,67709.03
2023-02-13T14:16:49.018Z,67704.53
2023-02-13T14:19:35.961Z,67697.75
2023-02-13T14:22:24.954Z,67695.50
2023-02-13T14:24:59.667Z,67695.50
2023-02-13T14:27:33.049Z,67695.50
2023-02-13T14:30:01.441Z,67693.59
2023-02-13T14:32:32.880Z,67688.72
2023-02-13T14:35:04.636Z,67686.09
2023-02-13T14:37:39.089Z,67690.97
2023-02-13T14:40:18.370Z,67705.66
2023-02-13T14:42:51.848Z,67707.16
2023-02-13T14:45:23.353Z,67701.28
2023-02-13T14:47:55.514Z,67690.97
2023-02-13T14:50:28.021Z,67687.78
2023-02-13T14:53:01.939Z,67683.28
2023-02-13T14:55:40.380Z,67686.84
2023-02-13T14:58:33.764Z,67673.47
2023-02-13T15:01:04.523Z,67670.47
2023-02-13T15:03:39.329Z,67667.66
2023-02-13T15:06:16.634Z,67660.31
2023-02-13T15:08:53.954Z,67651.13
2023-02-13T15:11:43.041Z,67647.19
2023-02-13T15:14:40.054Z,67647.56
2023-02-13T15:17:22.328Z,67646.59
2023-02-13T15:19:52.952Z,67636.13
2023-02-13T15:22:46.106Z,67637.97
2023-02-13T15:25:37.132Z,67638.53
2023-02-13T15:28:11.306Z,67635.34
2023-02-13T15:30:44.673Z,67628.38
2023-02-13T15:33:23.051Z,67630.63
2023-02-13T15:35:58.339Z,67630.06
2023-02-13T15:38:26.498Z,67626.13
2023-02-13T15:41:05.022Z,67627.25
2023-02-13T15:43:42.528Z,67621.81
2023-02-13T15:46:27.042Z,67620.47
2023-02-13T15:49:17.292Z,67618.78
2023-02-13T15:51:54.478Z,67611.66
2023-02-13T15:54:56.126Z,67624.03
2023-02-13T15:57:34.003Z,67622.75
2023-02-13T16:02:58.208Z,67609.41
2023-02-13T16:05:39.925Z,67607.16
2023-02-13T16:08:40.143Z,67605.25
2023-02-13T16:11:30.392Z,67601.88
2023-02-13T16:14:00.151Z,67597.94
2023-02-13T16:16:33.616Z,67589.66
2023-02-13T16:19:01.065Z,67589.47
2023-02-13T16:21:39.742Z,67588.56
2023-02-13T16:24:09.180Z,67587.78
2023-02-13T16:26:41.858Z,67585.72
2023-02-13T16:29:14.138Z,67584.97
2023-02-13T16:31:44.641Z,67590.19
2023-02-13T16:34:29.018Z,67584.41
2023-02-13T16:36:57.114Z,67582.72
2023-02-13T16:39:31.544Z,67582.72
2023-02-13T16:42:00.568Z,67585.31
2023-02-13T16:44:32.947Z,67586.47
2023-02-13T16:47:02.898Z,67580.09
2023-02-13T16:49:38.677Z,67584.97
2023-02-13T16:52:20.016Z,67585.91
2023-02-13T16:54:58.146Z,67579.53
2023-02-13T16:57:33.876Z,67585.31
2023-02-13T17:00:06.600Z,67579.69
2023-02-13T17:02:37.029Z,67576.50
2023-02-13T17:05:10.100Z,67571.66
2023-02-13T17:07:49.297Z,67572.56
2023-02-13T17:10:28.987Z,67576.88
2023-02-13T17:13:00.256Z,67575.03
2023-02-13T17:15:29.871Z,67571.09
2023-02-13T17:17:57.174Z,67570.50
2023-02-13T17:20:27.889Z,67572.19
2023-02-13T17:23:00.951Z,67568.81
2023-02-13T17:25:30.688Z,67570.88
2023-02-13T17:28:01.395Z,67571.78
2023-02-13T17:30:31.712Z,67568.63
2023-02-13T17:33:02.955Z,67564.31
2023-02-13T17:35:30.526Z,67563.75
2023-02-13T17:38:06.276Z,67561.28
2023-02-13T17:40:33.983Z,67561.84
2023-02-13T17:43:04.357Z,67561.84
2023-02-13T17:45:33.974Z,67565.59
2023-02-13T17:48:06.163Z,67564.13
2023-02-13T17:50:34.997Z,67562.63
2023-02-13T17:53:07.556Z,67571.44
2023-02-13T17:55:35.713Z,67561.50
2023-02-13T17:58:05.259Z,67557.91
2023-02-13T18:00:35.435Z,67557.72
2023-02-13T18:03:06.448Z,67550.78
2023-02-13T18:05:33.928Z,67555.66
2023-02-13T18:08:05.772Z,67563.34
2023-02-13T18:10:35.273Z,67560.56
2023-02-13T18:13:11.622Z,67565.78
2023-02-13T18:15:44.452Z,67559.81
2023-02-13T18:18:13.457Z,67563.34
2023-02-13T18:20:40.628Z,67555.88
2023-02-13T18:23:08.389Z,67558.47
2023-02-13T18:25:35.958Z,67553.41
2023-02-13T18:28:03.285Z,67552.47
2023-02-13T18:30:30.611Z,67550.22
2023-02-13T18:32:59.246Z,67562.44
2023-02-13T18:35:26.695Z,67550.22
2023-02-13T18:37:54.104Z,67545.50
2023-02-13T18:40:22.530Z,67542.69
2023-02-13T18:42:51.138Z,67540.06
2023-02-13T18:45:18.506Z,67536.13
2023-02-13T18:47:48.641Z,67537.25
2023-02-13T18:50:15.822Z,67539.31
2023-02-13T18:52:43.123Z,67538.19
2023-02-13T18:55:10.403Z,67545.66
2023-02-13T18:57:37.768Z,67537.81
2023-02-13T19:00:05.876Z,67539.31
2023-02-13T19:02:33.517Z,67539.88
2023-02-13T19:05:01.480Z,67539.31
2023-02-13T19:07:32.664Z,67541.34
2023-02-13T19:10:06.964Z,67538.41
2023-02-13T19:12:34.993Z,67540.44
2023-02-13T19:15:05.115Z,67543.81
2023-02-13T19:17:35.625Z,67535.56
2023-02-13T19:20:04.885Z,67536.84
2023-02-13T19:22:32.857Z,67532.56
2023-02-13T19:25:01.664Z,67540.25
2023-02-13T19:27:32.921Z,67534.81
2023-02-13T19:30:00.234Z,67534.81
2023-02-13T19:32:27.636Z,67535.00
2023-02-13T19:34:55.015Z,67537.41
2023-02-13T19:37:22.364Z,67537.41
2023-02-13T19:39:51.590Z,67537.06
2023-02-13T19:42:18.743Z,67548.31
2023-02-13T19:44:47.711Z,67553.22
2023-02-13T19:47:16.052Z,67559.59
2023-02-13T19:49:43.687Z,67568.06
2023-02-13T19:52:12.511Z,67567.50
2023-02-13T19:54:40.166Z,67560.19
2023-02-13T19:57:09.216Z,67567.84
2023-02-13T19:59:37.398Z,67565.97
2023-02-13T20:02:05.041Z,67563.53
2023-02-13T20:04:36.896Z,67553.25
2023-02-13T20:07:05.818Z,67553.03
2023-02-13T20:09:35.146Z,67559.78
2023-02-13T20:12:02.898Z,67552.13
2023-02-13T20:14:31.578Z,67552.63
2023-02-13T20:16:58.776Z,67541.56
2023-02-13T20:19:28.343Z,67537.06
2023-02-13T20:21:55.658Z,67537.25
2023-02-13T20:24:25.360Z,67537.63
2023-02-13T20:26:52.913Z,67532.75
2023-02-13T20:29:21.065Z,67530.16
2023-02-13T20:31:49.535Z,67539.69
2023-02-13T20:34:16.689Z,67535.94
2023-02-13T20:36:43.987Z,67541.00
2023-02-13T20:39:11.483Z,67535.56
2023-02-13T20:41:38.885Z,67537.81
2023-02-13T20:44:10.628Z,67538.56
2023-02-13T20:46:40.483Z,67530.84
2023-02-13T20:49:08.499Z,67530.84
2023-02-13T20:51:36.190Z,67534.59
2023-02-13T20:54:03.578Z,67533.09
2023-02-13T20:56:30.952Z,67533.88
2023-02-13T20:58:59.932Z,67543.63
2023-02-13T21:01:32.958Z,67535.56
2023-02-13T21:04:00.578Z,67535.94
2023-02-13T21:06:32.910Z,67539.69
2023-02-13T21:09:00.596Z,67532.56
2023-02-13T21:11:31.254Z,67525.06
2023-02-13T21:13:58.742Z,67531.22
2023-02-13T21:16:28.821Z,67533.31
2023-02-13T21:18:58.731Z,67537.06
2023-02-13T21:21:28.801Z,67533.88
2023-02-13T21:23:57.452Z,67536.50
2023-02-13T21:26:26.510Z,67541.56
2023-02-13T21:28:54.707Z,67534.47
2023-02-13T21:31:25.538Z,67531.44
2023-02-13T21:33:52.797Z,67526.34
2023-02-13T21:36:20.037Z,67544.38
2023-02-13T21:38:47.238Z,67541.34
2023-02-13T21:41:18.371Z,67538.56
2023-02-13T21:43:47.046Z,67536.50
2023-02-13T21:46:17.080Z,67535.38
2023-02-13T21:48:46.184Z,67528.59
2023-02-13T21:51:19.118Z,67525.81
2023-02-13T21:53:49.434Z,67527.84
2023-02-13T21:56:26.686Z,67527.50
2023-02-13T21:58:54.361Z,67532.34
2023-02-13T22:01:26.987Z,67534.06
2023-02-13T22:03:59.078Z,67527.50
2023-02-13T22:06:28.937Z,67526.91
2023-02-13T22:09:05.515Z,67538.75
2023-02-13T22:11:33.065Z,67541.75
2023-02-13T22:14:03.047Z,67541.00
2023-02-13T22:16:32.234Z,67543.81
2023-02-13T22:19:00.604Z,67534.47
2023-02-13T22:21:30.146Z,67539.31
2023-02-13T22:23:57.613Z,67529.38
2023-02-13T22:26:27.397Z,67536.31
2023-02-13T22:28:56.191Z,67540.81
2023-02-13T22:31:25.585Z,67537.63
2023-02-13T22:34:03.503Z,67536.50
2023-02-13T22:36:40.244Z,67536.50
2023-02-13T22:39:09.348Z,67528.81
2023-02-13T22:41:36.697Z,67533.09
2023-02-13T22:44:06.458Z,67533.69
2023-02-13T22:46:36.161Z,67528.81
2023-02-13T22:49:03.742Z,67527.13
2023-02-13T22:51:33.586Z,67530.84
2023-02-13T22:54:01.374Z,67527.69
2023-02-13T22:56:30.699Z,67535.72
2023-02-13T22:58:58.528Z,67539.31
2023-02-13T23:01:26.479Z,67514.66
2023-02-13T23:03:53.956Z,67536.50
2023-02-13T23:06:22.096Z,67540.81
2023-02-13T23:08:52.725Z,67544.38
2023-02-13T23:11:41.191Z,67545.50
2023-02-13T23:14:12.800Z,67545.88
2023-02-13T23:16:59.380Z,67542.13
2023-02-13T23:19:29.922Z,67543.25
2023-02-13T23:21:57.628Z,67549.81
2023-02-13T23:24:26.174Z,67551.16
2023-02-13T23:26:54.729Z,67545.16
2023-02-13T23:29:22.633Z,67547.41
2023-02-13T23:31:52.125Z,67549.81
2023-02-13T23:34:19.607Z,67549.81
2023-02-13T23:36:46.934Z,67546.63
2023-02-13T23:39:14.133Z,67549.25
2023-02-13T23:41:41.357Z,67542.13
2023-02-13T23:44:08.492Z,67546.63
2023-02-13T23:46:35.650Z,67550.59
2023-02-13T23:49:02.875Z,67550.75
2023-02-13T23:51:29.943Z,67540.66
2023-02-13T23:53:57.432Z,67550.75
2023-02-13T23:56:25.521Z,67544.97
2023-02-13T23:58:55.614Z,67540.66
